Time;durP1;ratioP1;P1;durP2;ratioP2;P2;SDS_P1;SDS_P2;PMS_P1;PMS_P2;Temp;Humidity;BMP_temperature;BMP_pressure;BME280_temperature;BME280_humidity;BME280_pressure;Samples;Min_cycle;Max_cycle;Signal;HPM_P1;HPM_P2
2023/06/22 00:00:32;;;;;;;10.82;6.22;;;;;;;26.91;61.62;101054.84;5072271;28;20063;-80
2023/06/22 00:03:00;;;;;;;9.50;6.15;;;;;;;27.02;60.46;101057.00;5072282;28;20040;-80
2023/06/22 00:05:28;;;;;;;8.93;5.22;;;;;;;27.11;60.51;101060.28;5072188;28;20503;-79
2023/06/22 00:07:56;;;;;;;9.85;5.47;;;;;;;27.03;59.91;101059.41;5072329;28;20503;-80
2023/06/22 00:10:24;;;;;;;9.15;5.65;;;;;;;27.02;59.53;101062.59;5072184;28;20499;-80
2023/06/22 00:12:52;;;;;;;6.50;5.30;;;;;;;26.90;59.67;101063.63;5071944;28;20055;-79
2023/06/22 00:15:21;;;;;;;7.13;4.93;;;;;;;26.87;59.80;101072.81;5072180;28;20537;-80
2023/06/22 00:17:49;;;;;;;7.60;5.43;;;;;;;26.78;59.93;101073.09;5070997;28;20510;-79
2023/06/22 00:20:18;;;;;;;8.82;5.25;;;;;;;26.86;60.03;101079.59;5071909;28;20059;-79
2023/06/22 00:22:47;;;;;;;9.70;5.38;;;;;;;26.93;60.16;101062.91;5072059;28;20045;-80
2023/06/22 00:25:15;;;;;;;7.22;4.78;;;;;;;26.95;59.76;101071.75;5072040;28;20530;-79
2023/06/22 00:27:43;;;;;;;8.57;5.60;;;;;;;26.95;60.16;101064.13;5071473;28;20047;-79
2023/06/22 00:30:12;;;;;;;8.70;4.97;;;;;;;26.99;59.22;101067.00;5070854;28;20483;-80
2023/06/22 00:32:40;;;;;;;8.35;5.13;;;;;;;26.90;59.64;101061.63;5072019;28;20380;-80
2023/06/22 00:35:09;;;;;;;7.30;5.50;;;;;;;27.10;59.73;101070.75;5072087;28;20048;-80
2023/06/22 00:37:38;;;;;;;10.20;5.53;;;;;;;27.03;59.21;101056.59;5072029;28;20051;-79
2023/06/22 00:40:09;;;;;;;7.72;5.28;;;;;;;27.15;59.17;101055.53;5069146;28;20049;-80
2023/06/22 00:42:38;;;;;;;9.20;5.22;;;;;;;27.15;59.29;101044.31;5070705;28;20075;-79
2023/06/22 00:45:08;;;;;;;7.88;5.40;;;;;;;27.41;58.72;101058.63;5070758;28;20036;-79
2023/06/22 00:47:37;;;;;;;7.70;5.50;;;;;;;27.16;59.70;101045.91;5071830;28;20392;-79
2023/06/22 00:50:07;;;;;;;8.85;5.22;;;;;;;27.05;60.64;101044.97;5072170;28;20056;-78
2023/06/22 00:52:35;;;;;;;8.38;5.75;;;;;;;26.83;61.72;101045.50;5072162;28;20051;-79
2023/06/22 00:55:04;;;;;;;10.75;6.45;;;;;;;26.61;62.63;101037.97;5070553;28;20508;-79
2023/06/22 00:57:37;;;;;;;8.10;5.82;;;;;;;26.59;62.24;101043.97;5071948;28;20495;-79
2023/06/22 01:00:07;;;;;;;8.55;5.40;;;;;;;26.79;61.75;101044.63;5070598;28;20376;-79
2023/06/22 01:02:36;;;;;;;8.75;6.20;;;;;;;26.82;61.28;101038.25;5071817;28;20123;-79
2023/06/22 01:05:06;;;;;;;11.68;5.70;;;;;;;26.93;60.60;101046.06;5071878;28;20045;-78
2023/06/22 01:07:44;;;;;;;11.63;6.18;;;;;;;27.03;59.53;101036.94;5070675;28;20048;-79
2023/06/22 01:10:29;;;;;;;8.43;5.80;;;;;;;26.98;60.79;101044.91;5071889;28;20052;-79
2023/06/22 01:13:32;;;;;;;9.48;5.82;;;;;;;26.61;61.32;101038.78;5071765;28;20052;-79
2023/06/22 01:16:05;;;;;;;11.23;6.53;;;;;;;26.61;61.22;101043.59;5071730;28;20075;-78
2023/06/22 01:18:36;;;;;;;9.55;6.20;;;;;;;26.64;61.40;101038.00;5071831;28;20478;-79
2023/06/22 01:21:09;;;;;;;7.90;5.78;;;;;;;26.50;62.40;101038.66;5071488;28;20044;-79
2023/06/22 01:23:51;;;;;;;8.07;6.10;;;;;;;26.46;62.16;101042.56;5071518;28;20045;-79
2023/06/22 01:26:36;;;;;;;11.60;5.63;;;;;;;26.43;61.95;101044.97;5071620;28;20052;-78
2023/06/22 01:29:05;;;;;;;9.85;6.00;;;;;;;26.38;62.95;101034.06;5071767;28;20056;-79
2023/06/22 01:31:35;;;;;;;9.77;5.95;;;;;;;26.33;63.10;101045.59;5070382;28;20399;-79
2023/06/22 01:34:06;;;;;;;13.40;6.22;;;;;;;26.23;62.56;101051.84;5071888;28;20395;-79
2023/06/22 01:36:36;;;;;;;9.57;6.50;;;;;;;26.33;63.40;101056.81;5070491;28;20049;-79
2023/06/22 01:39:05;;;;;;;10.57;6.25;;;;;;;26.53;61.84;101051.91;5073247;28;20040;-79
2023/06/22 01:41:37;;;;;;;12.38;6.28;;;;;;;26.32;62.50;101043.16;5075023;28;20514;-79
2023/06/22 01:44:09;;;;;;;9.43;5.80;;;;;;;26.35;61.79;101053.66;5073851;28;20052;-79
2023/06/22 01:46:39;;;;;;;8.93;5.78;;;;;;;26.27;62.63;101055.53;5075064;28;20048;-78
2023/06/22 01:49:08;;;;;;;7.53;5.68;;;;;;;26.22;62.68;101048.22;5074829;28;20044;-78
2023/06/22 01:51:36;;;;;;;10.82;5.40;;;;;;;26.40;62.66;101062.53;5074857;28;20491;-80
2023/06/22 01:54:06;;;;;;;6.22;5.13;;;;;;;26.27;63.25;101047.13;5074668;28;20119;-79
2023/06/22 01:56:35;;;;;;;9.00;5.22;;;;;;;26.46;62.56;101049.00;5074630;28;20395;-79
2023/06/22 01:59:15;;;;;;;9.90;6.57;;;;;;;26.46;61.78;101051.00;5073348;28;20055;-79
2023/06/22 02:01:49;;;;;;;8.82;5.93;;;;;;;26.28;61.82;101059.94;5073249;28;20148;-79
2023/06/22 02:04:23;;;;;;;7.07;5.55;;;;;;;26.08;62.73;101060.03;5074504;28;20063;-79
2023/06/22 02:06:58;;;;;;;10.55;6.10;;;;;;;26.11;63.58;101058.47;5073300;28;20051;-79
2023/06/22 02:09:30;;;;;;;6.97;6.00;;;;;;;25.99;64.10;101060.28;5074478;28;20048;-79
2023/06/22 02:12:02;;;;;;;9.23;5.88;;;;;;;25.99;64.23;101054.66;5074435;28;20391;-79
2023/06/22 02:14:31;;;;;;;9.48;5.47;;;;;;;25.95;63.13;101048.19;5073238;28;20044;-79
2023/06/22 02:16:59;;;;;;;9.68;6.18;;;;;;;26.11;62.77;101050.88;5073201;28;20044;-79
2023/06/22 02:19:27;;;;;;;13.35;6.00;;;;;;;26.27;62.38;101056.34;5074092;28;20047;-79
2023/06/22 02:21:55;;;;;;;10.70;6.25;;;;;;;25.96;63.72;101058.22;5074262;28;20055;-79
2023/06/22 02:24:23;;;;;;;10.30;6.18;;;;;;;26.11;63.43;101073.31;5073073;28;20530;-79
2023/06/22 02:26:51;;;;;;;12.73;6.47;;;;;;;25.96;63.51;101058.22;5072888;28;20055;-79
2023/06/22 02:29:19;;;;;;;8.30;5.95;;;;;;;25.84;65.56;101072.41;5074124;28;20040;-79
2023/06/22 02:31:47;;;;;;;10.45;6.07;;;;;;;25.68;65.80;101062.16;5073947;28;20044;-79
2023/06/22 02:34:18;;;;;;;12.20;7.10;;;;;;;25.97;64.67;101068.25;5073858;28;20051;-79
2023/06/22 02:36:50;;;;;;;7.78;6.47;;;;;;;26.03;63.76;101066.75;5073949;28;20048;-79
2023/06/22 02:39:26;;;;;;;8.60;6.22;;;;;;;25.77;64.37;101065.50;5055838;28;20052;-79
2023/06/22 02:41:54;;;;;;;9.35;6.82;;;;;;;25.77;64.87;101059.09;5072504;28;20044;-79
2023/06/22 02:44:23;;;;;;;9.57;6.88;;;;;;;25.88;64.39;101070.50;5072497;28;20056;-79
2023/06/22 02:46:51;;;;;;;9.40;5.95;;;;;;;25.67;64.79;101060.53;5072482;28;20048;-79
2023/06/22 02:49:19;;;;;;;10.50;6.40;;;;;;;25.60;64.83;101060.38;5072029;28;20067;-79
2023/06/22 02:51:48;;;;;;;11.57;7.15;;;;;;;25.61;64.70;101067.63;5072359;28;20487;-79
2023/06/22 02:54:19;;;;;;;9.55;6.07;;;;;;;25.65;63.81;101064.91;5072335;28;20430;-79
2023/06/22 02:56:50;;;;;;;13.13;6.65;;;;;;;25.47;64.09;101063.34;5072405;28;20063;-79
2023/06/22 02:59:23;;;;;;;8.98;6.07;;;;;;;25.50;64.46;101062.59;5071920;28;20044;-79
2023/06/22 03:01:59;;;;;;;11.48;6.47;;;;;;;25.49;65.34;101071.38;5055666;28;20050;-79
2023/06/22 03:04:31;;;;;;;8.98;6.20;;;;;;;25.40;65.53;101073.63;5072090;28;20052;-79
2023/06/22 03:07:00;;;;;;;11.15;6.45;;;;;;;25.43;64.73;101079.28;5072126;28;20388;-79
2023/06/22 03:09:31;;;;;;;10.65;6.30;;;;;;;25.32;65.33;101078.25;5072099;28;20052;-79
2023/06/22 03:11:59;;;;;;;10.05;6.18;;;;;;;25.45;64.86;101062.09;5071946;28;20072;-79
2023/06/22 03:14:34;;;;;;;11.45;6.53;;;;;;;25.30;65.57;101077.81;5071873;28;20056;-79
2023/06/22 03:17:05;;;;;;;12.57;7.03;;;;;;;25.18;66.10;101078.78;5071816;28;20048;-79
2023/06/22 03:19:33;;;;;;;15.93;6.57;;;;;;;25.08;67.34;101080.97;5055360;28;20479;-79
2023/06/22 03:22:01;;;;;;;13.10;7.78;;;;;;;25.10;67.23;101075.03;5073275;28;20049;-79
2023/06/22 03:24:29;;;;;;;12.88;7.30;;;;;;;25.16;67.38;101073.53;5072934;28;20051;-79
2023/06/22 03:26:57;;;;;;;11.45;6.90;;;;;;;25.01;67.92;101074.41;5073265;28;20479;-79
2023/06/22 03:29:25;;;;;;;10.77;6.55;;;;;;;25.06;67.97;101072.16;5071779;28;20049;-79
2023/06/22 03:31:57;;;;;;;12.45;7.18;;;;;;;25.21;68.02;101078.84;5071648;28;20058;-79
2023/06/22 03:34:27;;;;;;;7.07;6.35;;;;;;;25.21;67.13;101076.06;5071542;28;20048;-79
2023/06/22 03:36:55;;;;;;;13.18;6.68;;;;;;;25.36;66.81;101073.53;5072758;28;20056;-79
2023/06/22 03:39:23;;;;;;;12.50;6.95;;;;;;;25.32;67.42;101078.25;5072480;28;20067;-79
2023/06/22 03:41:51;;;;;;;7.70;6.63;;;;;;;25.53;66.15;101072.28;5071301;28;20048;-79
2023/06/22 03:44:19;;;;;;;9.35;6.30;;;;;;;25.41;66.45;101073.22;5072412;28;20056;-79
2023/06/22 03:46:47;;;;;;;11.95;7.00;;;;;;;25.47;66.04;101068.94;5071426;28;20059;-79
2023/06/22 03:49:15;;;;;;;12.05;6.45;;;;;;;25.48;65.60;101087.38;5072494;28;20040;-79
2023/06/22 03:51:43;;;;;;;8.55;6.38;;;;;;;25.36;66.23;101077.16;5072370;28;20048;-79
2023/06/22 03:54:11;;;;;;;12.38;6.75;;;;;;;25.39;66.23;101081.19;5071140;28;20049;-79
2023/06/22 03:56:39;;;;;;;11.90;6.95;;;;;;;25.42;66.57;101074.84;5072284;28;20048;-79
2023/06/22 03:59:07;;;;;;;10.48;6.22;;;;;;;25.59;65.69;101069.97;5072333;28;20048;-80
2023/06/22 04:01:35;;;;;;;9.10;6.13;;;;;;;25.48;66.17;101064.16;5071612;28;20506;-80
2023/06/22 04:04:03;;;;;;;12.50;6.63;;;;;;;25.54;66.23;101067.47;5072189;28;20044;-81
2023/06/22 04:06:31;;;;;;;9.20;6.35;;;;;;;25.55;65.88;101067.13;5072293;28;20380;-80
2023/06/22 04:09:00;;;;;;;9.20;7.18;;;;;;;25.51;66.10;101060.59;5072210;28;20051;-80
2023/06/22 04:11:28;;;;;;;9.80;6.18;;;;;;;25.50;67.06;101073.81;5072041;28;20040;-81
2023/06/22 04:13:56;;;;;;;10.68;6.88;;;;;;;25.45;68.18;101076.09;5072146;28;20048;-81
2023/06/22 04:16:24;;;;;;;13.20;6.75;;;;;;;25.46;67.28;101072.94;5072250;28;20045;-81
2023/06/22 04:18:52;;;;;;;8.55;6.43;;;;;;;25.58;66.74;101057.16;5070855;28;20052;-81
2023/06/22 04:21:20;;;;;;;13.20;7.43;;;;;;;25.62;66.67;101063.66;5091139;28;20044;-81
2023/06/22 04:23:48;;;;;;;12.20;6.90;;;;;;;25.58;66.46;101068.38;5091640;28;20040;-82
2023/06/22 04:26:16;;;;;;;14.88;6.57;;;;;;;25.46;66.23;101053.31;5090357;28;20048;-82
2023/06/22 04:28:51;;;;;;;13.10;6.38;;;;;;;25.65;66.09;101054.47;5091131;28;20063;-81
2023/06/22 04:31:19;;;;;;;10.55;6.13;;;;;;;25.82;65.69;101055.19;5110444;28;20589;-81
2023/06/22 04:33:47;;;;;;;14.98;6.22;;;;;;;25.76;65.46;101040.69;5089292;28;20051;-82
2023/06/22 04:36:15;;;;;;;15.20;7.05;;;;;;;25.73;65.99;101053.44;5091530;28;20051;-81
2023/06/22 04:38:44;;;;;;;13.40;6.28;;;;;;;25.64;66.20;101066.88;5091398;28;20051;-81
2023/06/22 04:41:14;;;;;;;9.50;6.00;;;;;;;25.80;65.78;101065.97;5091962;28;20051;-81
2023/06/22 04:43:42;;;;;;;12.85;6.00;;;;;;;25.66;65.71;101055.31;5091898;28;20044;-81
2023/06/22 04:46:10;;;;;;;10.25;5.95;;;;;;;25.74;66.15;101052.25;5091683;28;20037;-81
2023/06/22 04:48:37;;;;;;;14.68;5.97;;;;;;;25.97;65.38;101065.47;5091897;28;20048;-81
2023/06/22 04:51:05;;;;;;;10.15;5.93;;;;;;;25.91;65.27;101069.75;5090453;28;20048;-81
2023/06/22 04:53:33;;;;;;;8.75;6.15;;;;;;;25.91;65.76;101066.97;5091191;28;20044;-81
2023/06/22 04:56:04;;;;;;;12.70;6.55;;;;;;;26.12;65.52;101062.88;5091496;28;20051;-81
2023/06/22 04:58:32;;;;;;;9.63;5.90;;;;;;;26.03;66.14;101061.16;5091266;28;20052;-81
2023/06/22 05:01:00;;;;;;;8.70;5.65;;;;;;;26.01;66.41;101059.91;5091933;28;20055;-81
2023/06/22 05:03:28;;;;;;;14.90;6.75;;;;;;;26.15;65.91;101060.13;5091381;28;20055;-76
2023/06/22 05:05:56;;;;;;;9.75;5.72;;;;;;;26.37;65.55;101068.09;5090808;28;20048;-74
2023/06/22 05:08:28;;;;;;;11.48;5.95;;;;;;;26.33;65.36;101065.25;5091468;28;20044;-74
2023/06/22 05:10:56;;;;;;;13.80;6.03;;;;;;;26.27;65.91;101070.38;5092059;28;20479;-74
2023/06/22 05:13:32;;;;;;;14.98;6.35;;;;;;;26.38;65.04;101064.09;5093763;28;20055;-74
2023/06/22 05:16:01;;;;;;;10.73;6.45;;;;;;;26.40;65.83;101070.94;5095017;28;20036;-74
2023/06/22 05:18:31;;;;;;;14.00;6.63;;;;;;;26.59;65.29;101068.41;5095586;28;20040;-74
2023/06/22 05:21:00;;;;;;;9.45;5.55;;;;;;;26.51;64.91;101073.13;5095635;28;20490;-74
2023/06/22 05:23:28;;;;;;;8.77;5.80;;;;;;;26.70;64.25;101058.16;5095454;28;20056;-74
2023/06/22 05:25:57;;;;;;;11.38;6.20;;;;;;;26.60;64.59;101059.63;5094630;28;20040;-72
2023/06/22 05:28:26;;;;;;;11.73;6.13;;;;;;;26.71;64.11;101065.38;5095133;28;20055;-73
2023/06/22 05:30:54;;;;;;;11.20;6.30;;;;;;;26.72;64.10;101069.00;5072966;28;20041;-73
2023/06/22 05:33:23;;;;;;;12.00;6.40;;;;;;;26.72;64.68;101078.22;5081107;28;20063;-80
2023/06/22 05:35:51;;;;;;;17.75;7.20;;;;;;;26.82;66.05;101066.34;5076850;28;20044;-81
2023/06/22 05:38:19;;;;;;;11.10;6.50;;;;;;;26.82;64.88;101074.75;5095122;28;20051;-81
2023/06/22 05:40:47;;;;;;;12.05;7.00;;;;;;;26.84;64.77;101063.16;5093943;28;20043;-81
2023/06/22 05:43:15;;;;;;;12.27;7.47;;;;;;;26.96;65.28;101062.13;5093953;28;20055;-80
2023/06/22 05:45:43;;;;;;;19.08;6.60;;;;;;;27.10;64.04;101056.69;5095101;28;20043;-80
2023/06/22 05:48:11;;;;;;;9.98;6.68;;;;;;;27.20;63.39;101066.44;5095101;28;20044;-80
2023/06/22 05:50:39;;;;;;;18.83;8.07;;;;;;;27.08;63.93;101073.09;5095003;28;20040;-78
2023/06/22 05:53:08;;;;;;;15.25;8.00;;;;;;;27.39;63.04;101069.44;5094605;28;20055;-79
2023/06/22 05:55:36;;;;;;;10.43;7.85;;;;;;;27.59;62.72;101068.09;5094804;28;20059;-80
2023/06/22 05:58:04;;;;;;;14.18;8.05;;;;;;;27.67;61.80;101068.16;5093403;28;20400;-78
2023/06/22 06:00:33;;;;;;;13.35;9.23;;;;;;;27.70;61.40;101073.81;5094103;28;20475;-79
2023/06/22 06:03:04;;;;;;;16.83;8.85;;;;;;;27.75;61.20;101050.13;5088762;28;20087;-79
2023/06/22 06:05:34;;;;;;;16.52;8.05;;;;;;;27.89;61.64;101061.53;5093619;28;20040;-79
2023/06/22 06:08:04;;;;;;;12.60;7.45;;;;;;;27.88;60.21;101057.09;5093867;28;20040;-79
2023/06/22 06:10:33;;;;;;;16.30;8.95;;;;;;;27.94;59.56;101048.31;5093001;28;20407;-79
2023/06/22 06:13:04;;;;;;;16.42;8.35;;;;;;;28.03;60.72;101057.22;5093555;28;20040;-80
2023/06/22 06:15:34;;;;;;;12.43;7.47;;;;;;;28.11;59.48;101060.91;5093517;28;20048;-78
2023/06/22 06:18:04;;;;;;;14.93;8.07;;;;;;;28.04;59.62;101064.44;5092473;28;20044;-79
2023/06/22 06:20:33;;;;;;;17.30;8.45;;;;;;;27.93;60.78;101053.13;5092837;28;20036;-79
2023/06/22 06:23:02;;;;;;;13.93;7.57;;;;;;;28.02;59.71;101058.41;5092152;28;20052;-79
2023/06/22 06:25:30;;;;;;;16.90;7.85;;;;;;;28.02;59.56;101055.59;5092310;28;20048;-78
2023/06/22 06:27:59;;;;;;;12.02;7.85;;;;;;;28.03;58.38;101062.84;5093609;28;20048;-79
2023/06/22 06:30:27;;;;;;;16.35;8.48;;;;;;;28.21;58.28;101064.97;5093021;28;20066;-79
2023/06/22 06:32:57;;;;;;;14.90;7.43;;;;;;;28.24;58.41;101061.44;5093831;28;20051;-79
2023/06/22 06:35:25;;;;;;;18.10;8.50;;;;;;;28.35;60.31;101067.91;5093158;28;20067;-78
2023/06/22 06:37:54;;;;;;;13.00;7.55;;;;;;;28.24;58.81;101072.69;5096590;28;20071;-78
2023/06/22 06:40:23;;;;;;;12.98;7.45;;;;;;;28.32;58.08;101068.72;5098134;28;20048;-78
2023/06/22 06:42:51;;;;;;;10.98;7.18;;;;;;;28.44;57.29;101064.75;5097366;28;20044;-78
2023/06/22 06:45:22;;;;;;;12.85;7.28;;;;;;;28.51;56.36;101073.25;5097861;28;20044;-78
2023/06/22 06:47:52;;;;;;;13.32;8.35;;;;;;;28.59;57.36;101065.66;5097687;28;20048;-78
2023/06/22 06:50:21;;;;;;;8.63;7.25;;;;;;;28.60;58.96;101063.66;5098171;28;20044;-78
2023/06/22 06:52:50;;;;;;;11.70;6.63;;;;;;;28.60;60.61;101070.09;5097044;28;20036;-79
2023/06/22 06:55:19;;;;;;;11.15;7.15;;;;;;;28.55;60.91;101070.47;5096873;28;20119;-78
2023/06/22 06:57:48;;;;;;;14.02;7.18;;;;;;;28.61;61.75;101074.53;5096027;28;20053;-78
2023/06/22 07:00:17;;;;;;;9.27;6.57;;;;;;;28.70;61.26;101071.34;5097509;28;20051;-78
2023/06/22 07:02:48;;;;;;;8.65;6.43;;;;;;;28.76;61.21;101063.31;5095743;28;20483;-79
2023/06/22 07:05:16;;;;;;;14.43;7.07;;;;;;;28.74;62.09;101057.28;5097804;28;20075;-79
2023/06/22 07:07:45;;;;;;;12.63;6.53;;;;;;;28.89;61.11;101059.00;5096887;28;20055;-79
2023/06/22 07:10:15;;;;;;;13.90;7.10;;;;;;;28.94;61.57;101052.19;5097079;28;20052;-79
2023/06/22 07:12:43;;;;;;;18.52;7.93;;;;;;;28.91;61.26;101041.69;5096363;28;20048;-78
2023/06/22 07:15:12;;;;;;;15.57;7.45;;;;;;;28.97;61.26;101042.94;5094324;28;20044;-78
2023/06/22 07:17:40;;;;;;;12.68;7.38;;;;;;;28.95;61.41;101048.97;5092213;28;20052;-78
2023/06/22 07:20:11;;;;;;;15.13;7.50;;;;;;;29.03;61.34;101054.63;5092631;28;20048;-78
2023/06/22 07:22:44;;;;;;;15.07;7.55;;;;;;;29.01;62.02;101049.38;5092560;28;20052;-79
2023/06/22 07:25:17;;;;;;;18.20;7.45;;;;;;;29.07;60.91;101044.16;5092002;28;20059;-78
2023/06/22 07:27:57;;;;;;;16.48;8.00;;;;;;;29.13;60.48;101038.97;5092813;28;20387;-79
2023/06/22 07:30:26;;;;;;;11.38;6.35;;;;;;;29.26;59.65;101048.66;5092481;28;20426;-78
2023/06/22 07:32:57;;;;;;;12.45;8.00;;;;;;;29.29;60.09;101049.88;5092333;28;20426;-79
2023/06/22 07:35:26;;;;;;;17.75;7.57;;;;;;;29.39;60.85;101054.72;5091375;28;20048;-79
2023/06/22 07:37:54;;;;;;;10.00;6.63;;;;;;;29.42;58.48;101048.28;5092269;28;20759;-79
2023/06/22 07:40:23;;;;;;;17.38;8.02;;;;;;;29.53;59.46;101054.00;5092261;28;20040;-79
2023/06/22 07:42:52;;;;;;;20.98;8.77;;;;;;;29.70;58.28;101049.56;5092302;28;20048;-78
2023/06/22 07:45:21;;;;;;;13.65;7.35;;;;;;;29.78;58.24;101051.16;5091155;28;20058;-79
2023/06/22 07:47:50;;;;;;;14.30;7.57;;;;;;;29.87;56.72;101044.34;5092462;28;20044;-78
2023/06/22 07:50:18;;;;;;;14.13;7.30;;;;;;;29.93;56.86;101051.19;5093315;28;20048;-78
2023/06/22 07:52:47;;;;;;;14.45;7.25;;;;;;;30.07;55.65;101052.38;5094891;28;20490;-78
2023/06/22 07:55:16;;;;;;;17.05;6.97;;;;;;;30.22;52.89;101051.19;5095280;28;20055;-79
2023/06/22 07:57:47;;;;;;;12.23;7.15;;;;;;;30.14;52.70;101050.38;5094360;28;20060;-79
2023/06/22 08:00:17;;;;;;;14.93;6.38;;;;;;;30.27;53.07;101050.78;5093339;28;20052;-79
2023/06/22 08:02:46;;;;;;;12.68;6.43;;;;;;;30.25;52.16;101058.84;5094662;28;20044;-78
2023/06/22 08:05:17;;;;;;;10.93;6.20;;;;;;;30.54;52.71;101053.13;5095370;28;20048;-79
2023/06/22 08:07:50;;;;;;;8.07;5.68;;;;;;;30.73;51.57;101058.75;5093662;28;20040;-79
2023/06/22 08:10:19;;;;;;;16.13;6.82;;;;;;;30.81;51.85;101049.84;5094888;28;20066;-80
2023/06/22 08:12:47;;;;;;;13.13;6.40;;;;;;;30.74;51.91;101061.16;5095558;28;20048;-79
2023/06/22 08:15:17;;;;;;;11.07;6.95;;;;;;;30.73;51.76;101062.38;5094586;28;20048;-79
2023/06/22 08:17:46;;;;;;;14.05;6.20;;;;;;;30.88;52.67;101070.81;5094136;28;20044;-79
2023/06/22 08:20:14;;;;;;;13.80;7.15;;;;;;;30.90;51.40;101059.91;5094912;28;20055;-80
2023/06/22 08:22:43;;;;;;;10.45;6.00;;;;;;;31.14;50.76;101068.66;5095163;28;20059;-79
2023/06/22 08:25:13;;;;;;;12.68;6.28;;;;;;;31.13;50.07;101061.41;5094121;28;20048;-79
2023/06/22 08:27:45;;;;;;;10.45;5.72;;;;;;;31.23;49.99;101064.16;5093991;28;20055;-79
2023/06/22 08:30:15;;;;;;;9.47;5.67;;;;;;;31.41;48.83;101068.94;5092459;28;20044;-79
2023/06/22 08:32:43;;;;;;;10.65;6.38;;;;;;;31.46;49.08;101068.50;5091445;28;20063;-79
2023/06/22 08:35:12;;;;;;;7.70;5.55;;;;;;;31.65;48.73;101055.03;5090112;28;20047;-78
2023/06/22 08:37:40;;;;;;;11.05;6.30;;;;;;;31.72;46.64;101059.84;5090671;28;20048;-79
2023/06/22 08:40:10;;;;;;;10.32;6.10;;;;;;;31.83;47.33;101068.25;5091110;28;20067;-80
2023/06/22 08:42:41;;;;;;;12.57;6.15;;;;;;;31.96;47.09;101057.25;5091428;28;20051;-80
2023/06/22 08:45:10;;;;;;;11.27;6.53;;;;;;;31.89;47.88;101060.94;5091241;28;20056;-79
2023/06/22 08:47:40;;;;;;;8.50;6.15;;;;;;;31.59;49.13;101051.88;5092436;28;20032;-79
2023/06/22 08:50:10;;;;;;;12.90;6.32;;;;;;;31.56;49.55;101040.59;5094641;28;20048;-80
2023/06/22 08:52:43;;;;;;;12.00;6.15;;;;;;;31.62;49.28;101055.88;5095529;28;20071;-80
2023/06/22 08:55:11;;;;;;;10.02;6.30;;;;;;;31.59;49.36;101051.88;5094392;28;20052;-79
2023/06/22 08:57:40;;;;;;;8.80;6.15;;;;;;;31.62;49.14;101053.84;5094944;28;20043;-79
2023/06/22 09:00:16;;;;;;;12.40;6.57;;;;;;;31.72;48.11;101054.19;5093299;28;20055;-80
2023/06/22 09:02:45;;;;;;;14.38;6.82;;;;;;;31.38;49.02;101042.28;5095364;28;20048;-80
2023/06/22 09:05:14;;;;;;;11.93;6.90;;;;;;;31.68;48.85;101042.09;5096510;28;20400;-80
2023/06/22 09:07:43;;;;;;;10.32;6.43;;;;;;;31.60;48.77;101033.66;5099131;28;20044;-80
2023/06/22 09:10:11;;;;;;;11.43;6.85;;;;;;;31.57;49.07;101040.16;5099118;28;20039;-80
2023/06/22 09:12:40;;;;;;;15.32;7.15;;;;;;;31.67;48.61;101048.97;5099637;28;20055;-80
2023/06/22 09:15:08;;;;;;;12.00;6.60;;;;;;;31.75;49.56;101045.69;5100408;28;20044;-80
2023/06/22 09:17:44;;;;;;;10.23;7.22;;;;;;;31.91;48.81;101044.38;5099740;28;20044;-80
2023/06/22 09:20:14;;;;;;;10.07;6.72;;;;;;;32.06;48.71;101039.38;5099844;28;20040;-79
2023/06/22 09:22:43;;;;;;;8.65;6.55;;;;;;;32.18;48.04;101036.03;5099956;28;20044;-80
2023/06/22 09:25:11;;;;;;;9.98;6.75;;;;;;;32.16;47.71;101032.78;5099717;28;20055;-80
2023/06/22 09:27:40;;;;;;;9.05;6.03;;;;;;;32.40;47.26;101035.00;5099860;28;20056;-80
2023/06/22 09:30:09;;;;;;;9.23;6.05;;;;;;;32.37;47.36;101033.00;5100156;28;20047;-80
2023/06/22 09:32:37;;;;;;;9.13;6.82;;;;;;;32.50;47.38;101038.94;5099569;28;20044;-79
2023/06/22 09:35:06;;;;;;;11.32;6.60;;;;;;;32.68;46.62;101025.38;5100600;28;20071;-79
2023/06/22 09:37:35;;;;;;;14.93;7.38;;;;;;;32.82;45.18;101026.41;5098279;28;20063;-80
2023/06/22 09:40:12;;;;;;;11.07;6.78;;;;;;;32.68;45.11;101016.88;5099603;28;20510;-80
2023/06/22 09:42:41;;;;;;;8.68;6.40;;;;;;;32.83;45.32;101023.16;5098746;28;20044;-80
2023/06/22 09:45:10;;;;;;;10.85;5.90;;;;;;;32.93;44.76;101012.91;5095739;28;20502;-79
2023/06/22 09:47:38;;;;;;;9.18;6.00;;;;;;;33.05;43.31;101017.25;5094212;28;20495;-80
2023/06/22 09:50:07;;;;;;;11.82;6.57;;;;;;;33.20;43.43;101012.16;5094337;28;20040;-79
2023/06/22 09:52:36;;;;;;;9.77;6.63;;;;;;;33.32;43.55;101002.25;5092646;28;20481;-79
2023/06/22 09:55:07;;;;;;;10.25;6.78;;;;;;;33.35;43.10;100989.25;5094423;28;20064;-79
2023/06/22 09:57:35;;;;;;;9.07;6.13;;;;;;;33.19;43.46;100981.41;5094424;28;20040;-80
2023/06/22 10:00:08;;;;;;;10.35;6.40;;;;;;;33.31;43.41;100982.81;5092992;28;20055;-79
2023/06/22 10:02:37;;;;;;;13.30;6.13;;;;;;;33.42;42.15;100980.63;5094146;28;20043;-79
2023/06/22 10:05:07;;;;;;;7.70;5.88;;;;;;;33.31;40.31;100968.63;5074189;28;20146;-80
2023/06/22 10:07:39;;;;;;;6.03;5.28;;;;;;;33.49;40.49;100968.38;5073432;28;20391;-79
2023/06/22 10:10:09;;;;;;;9.38;5.35;;;;;;;33.62;39.42;100962.91;5079802;28;20059;-79
2023/06/22 10:12:48;;;;;;;7.90;5.07;;;;;;;33.47;39.25;100963.13;5074429;28;20052;-80
2023/06/22 10:15:16;;;;;;;6.15;5.57;;;;;;;33.45;39.99;100954.25;5075913;28;20049;-79
2023/06/22 10:17:45;;;;;;;7.60;5.45;;;;;;;33.45;39.56;100950.59;5089186;28;20546;-80
2023/06/22 10:20:14;;;;;;;11.32;6.18;;;;;;;33.64;39.61;100954.75;5074796;28;20049;-80
2023/06/22 10:22:44;;;;;;;8.27;5.18;;;;;;;33.77;40.55;100949.28;5075786;28;20048;-79
2023/06/22 10:25:13;;;;;;;6.75;5.55;;;;;;;33.85;39.38;100952.75;5074833;28;20045;-80
2023/06/22 10:27:41;;;;;;;9.45;6.28;;;;;;;33.55;39.23;100954.50;5109851;28;20048;-80
2023/06/22 10:30:12;;;;;;;8.52;5.93;;;;;;;33.62;40.66;100957.25;5077156;28;20048;-80
2023/06/22 10:32:43;;;;;;;10.25;5.70;;;;;;;33.67;39.92;100953.88;5109013;28;20052;-80
2023/06/22 10:35:13;;;;;;;8.25;5.57;;;;;;;33.73;39.79;100957.84;5076529;28;20048;-80
2023/06/22 10:37:46;;;;;;;9.80;5.47;;;;;;;33.83;40.64;100950.38;5076594;28;20056;-79
2023/06/22 10:40:16;;;;;;;8.40;6.25;;;;;;;33.84;39.97;100942.63;5077427;28;20041;-79
2023/06/22 10:42:45;;;;;;;9.55;5.43;;;;;;;33.94;39.77;100938.81;5077185;28;20045;-80
2023/06/22 10:45:13;;;;;;;9.32;5.70;;;;;;;33.91;39.50;100946.16;5077403;28;20048;-79
2023/06/22 10:47:42;;;;;;;7.97;5.45;;;;;;;34.09;40.03;100944.22;5076646;28;20063;-79
2023/06/22 10:50:11;;;;;;;7.78;5.40;;;;;;;34.23;39.80;100937.47;5077185;28;20044;-79
2023/06/22 10:52:41;;;;;;;7.60;6.00;;;;;;;34.32;40.37;100943.38;5077128;28;20051;-80
2023/06/22 10:55:10;;;;;;;8.98;6.35;;;;;;;34.26;40.46;100945.91;5077034;28;20419;-80
2023/06/22 10:57:43;;;;;;;10.57;6.85;;;;;;;34.31;40.96;100948.22;5074891;28;20040;-80
2023/06/22 11:00:14;;;;;;;8.55;5.28;;;;;;;34.58;39.88;100941.63;5073841;28;20059;-78
2023/06/22 11:02:42;;;;;;;9.05;5.90;;;;;;;34.69;39.47;100952.75;5088228;28;20048;-80
2023/06/22 11:05:11;;;;;;;8.20;5.78;;;;;;;34.89;38.86;100934.81;5093021;28;20524;-78
2023/06/22 11:07:44;;;;;;;8.38;6.10;;;;;;;34.89;38.71;100942.56;5091744;28;20071;-77
2023/06/22 11:10:17;;;;;;;8.68;5.80;;;;;;;34.78;38.70;100954.97;5092923;28;20427;-78
2023/06/22 11:12:45;;;;;;;10.75;6.32;;;;;;;34.70;39.57;100953.56;5092715;28;20398;-77
2023/06/22 11:15:14;;;;;;;7.88;5.65;;;;;;;34.77;39.46;100950.53;5092930;28;20071;-78
2023/06/22 11:17:42;;;;;;;13.57;6.55;;;;;;;34.82;38.62;100947.19;5092155;28;20403;-79
2023/06/22 11:20:12;;;;;;;16.27;6.68;;;;;;;34.92;39.67;100935.97;5091130;28;20044;-78
2023/06/22 11:22:41;;;;;;;9.77;5.93;;;;;;;34.98;39.50;100937.06;5092856;28;20048;-80
2023/06/22 11:25:11;;;;;;;8.73;6.75;;;;;;;35.00;39.77;100926.06;5092738;28;20078;-79
2023/06/22 11:27:40;;;;;;;13.82;5.90;;;;;;;34.87;37.61;100930.81;5092387;28;20051;-79
2023/06/22 11:30:09;;;;;;;7.03;5.60;;;;;;;34.89;38.94;100926.28;5092365;28;20040;-79